sensor_id;sensor_type;location;lat;lon;timestamp;P1;durP1;ratioP1;P2;durP2;ratioP2
13951;SDS011;39535;52.192;9.886;2023-08-06T00:00:51;3.10;;;2.80;;
13951;SDS011;39535;52.192;9.886;2023-08-06T00:03:17;4.40;;;3.20;;
13951;SDS011;39535;52.192;9.886;2023-08-06T00:05:44;3.57;;;3.27;;
13951;SDS011;39535;52.192;9.886;2023-08-06T00:08:10;4.20;;;3.80;;
13951;SDS011;39535;52.192;9.886;2023-08-06T00:10:38;4.53;;;3.27;;
13951;SDS011;39535;52.192;9.886;2023-08-06T00:13:05;3.70;;;3.40;;
13951;SDS011;39535;52.192;9.886;2023-08-06T00:15:32;3.60;;;3.30;;
13951;SDS011;39535;52.192;9.886;2023-08-06T00:17:58;3.23;;;3.03;;
13951;SDS011;39535;52.192;9.886;2023-08-06T00:20:25;3.70;;;3.50;;
13951;SDS011;39535;52.192;9.886;2023-08-06T00:22:51;3.33;;;3.03;;
13951;SDS011;39535;52.192;9.886;2023-08-06T00:25:17;4.67;;;4.27;;
13951;SDS011;39535;52.192;9.886;2023-08-06T00:27:46;3.47;;;3.17;;
13951;SDS011;39535;52.192;9.886;2023-08-06T00:30:12;3.87;;;3.50;;
13951;SDS011;39535;52.192;9.886;2023-08-06T00:32:38;3.60;;;3.40;;
13951;SDS011;39535;52.192;9.886;2023-08-06T00:35:05;3.70;;;3.40;;
13951;SDS011;39535;52.192;9.886;2023-08-06T00:37:32;3.33;;;3.03;;
13951;SDS011;39535;52.192;9.886;2023-08-06T00:39:59;3.67;;;3.43;;
13951;SDS011;39535;52.192;9.886;2023-08-06T00:42:25;3.40;;;3.20;;
13951;SDS011;39535;52.192;9.886;2023-08-06T00:44:53;3.97;;;3.67;;
13951;SDS011;39535;52.192;9.886;2023-08-06T00:47:19;4.57;;;3.73;;
13951;SDS011;39535;52.192;9.886;2023-08-06T00:49:46;3.93;;;3.70;;
13951;SDS011;39535;52.192;9.886;2023-08-06T00:52:13;4.40;;;4.03;;
13951;SDS011;39535;52.192;9.886;2023-08-06T00:54:40;4.17;;;3.87;;
13951;SDS011;39535;52.192;9.886;2023-08-06T00:57:07;5.23;;;3.90;;
13951;SDS011;39535;52.192;9.886;2023-08-06T00:59:34;7.73;;;3.53;;
13951;SDS011;39535;52.192;9.886;2023-08-06T01:02:02;3.60;;;3.30;;
13951;SDS011;39535;52.192;9.886;2023-08-06T01:04:28;3.63;;;3.33;;
13951;SDS011;39535;52.192;9.886;2023-08-06T01:06:58;3.47;;;3.17;;
13951;SDS011;39535;52.192;9.886;2023-08-06T01:09:35;3.77;;;3.47;;
13951;SDS011;39535;52.192;9.886;2023-08-06T01:12:13;4.87;;;4.40;;
13951;SDS011;39535;52.192;9.886;2023-08-06T01:14:51;3.73;;;3.43;;
13951;SDS011;39535;52.192;9.886;2023-08-06T01:17:25;4.10;;;3.80;;
13951;SDS011;39535;52.192;9.886;2023-08-06T01:19:52;3.60;;;3.40;;
13951;SDS011;39535;52.192;9.886;2023-08-06T01:22:20;3.77;;;3.47;;
13951;SDS011;39535;52.192;9.886;2023-08-06T01:24:47;3.67;;;3.47;;
13951;SDS011;39535;52.192;9.886;2023-08-06T01:27:17;3.73;;;3.43;;
13951;SDS011;39535;52.192;9.886;2023-08-06T01:29:52;9.40;;;4.30;;
13951;SDS011;39535;52.192;9.886;2023-08-06T01:32:25;3.87;;;3.57;;
13951;SDS011;39535;52.192;9.886;2023-08-06T01:34:52;5.60;;;3.77;;
13951;SDS011;39535;52.192;9.886;2023-08-06T01:37:22;3.57;;;3.37;;
13951;SDS011;39535;52.192;9.886;2023-08-06T01:39:48;3.47;;;3.17;;
13951;SDS011;39535;52.192;9.886;2023-08-06T01:42:15;4.13;;;3.80;;
13951;SDS011;39535;52.192;9.886;2023-08-06T01:44:41;3.63;;;3.10;;
13951;SDS011;39535;52.192;9.886;2023-08-06T01:47:08;3.47;;;3.23;;
13951;SDS011;39535;52.192;9.886;2023-08-06T01:49:34;7.80;;;2.57;;
13951;SDS011;39535;52.192;9.886;2023-08-06T01:52:01;2.97;;;2.77;;
13951;SDS011;39535;52.192;9.886;2023-08-06T01:54:29;3.73;;;3.43;;
13951;SDS011;39535;52.192;9.886;2023-08-06T01:56:55;3.13;;;2.93;;
13951;SDS011;39535;52.192;9.886;2023-08-06T01:59:23;2.87;;;2.70;;
13951;SDS011;39535;52.192;9.886;2023-08-06T02:01:49;3.50;;;3.30;;
13951;SDS011;39535;52.192;9.886;2023-08-06T02:04:16;4.23;;;3.30;;
13951;SDS011;39535;52.192;9.886;2023-08-06T02:06:42;3.17;;;2.97;;
13951;SDS011;39535;52.192;9.886;2023-08-06T02:09:09;3.13;;;2.93;;
13951;SDS011;39535;52.192;9.886;2023-08-06T02:11:37;4.20;;;3.10;;
13951;SDS011;39535;52.192;9.886;2023-08-06T02:14:03;3.10;;;2.90;;
13951;SDS011;39535;52.192;9.886;2023-08-06T02:16:29;3.30;;;3.00;;
13951;SDS011;39535;52.192;9.886;2023-08-06T02:18:56;3.00;;;2.73;;
13951;SDS011;39535;52.192;9.886;2023-08-06T02:21:22;2.93;;;2.37;;
13951;SDS011;39535;52.192;9.886;2023-08-06T02:23:49;3.03;;;2.77;;
13951;SDS011;39535;52.192;9.886;2023-08-06T02:26:15;3.00;;;2.70;;
13951;SDS011;39535;52.192;9.886;2023-08-06T02:28:43;3.00;;;2.80;;
13951;SDS011;39535;52.192;9.886;2023-08-06T02:31:09;3.03;;;2.40;;
13951;SDS011;39535;52.192;9.886;2023-08-06T02:33:36;2.30;;;2.13;;
13951;SDS011;39535;52.192;9.886;2023-08-06T02:36:03;3.83;;;2.23;;
13951;SDS011;39535;52.192;9.886;2023-08-06T02:38:30;2.10;;;2.00;;
13951;SDS011;39535;52.192;9.886;2023-08-06T02:40:57;2.33;;;2.13;;
13951;SDS011;39535;52.192;9.886;2023-08-06T02:43:23;2.53;;;2.37;;
13951;SDS011;39535;52.192;9.886;2023-08-06T02:45:51;2.77;;;2.57;;
13951;SDS011;39535;52.192;9.886;2023-08-06T02:48:17;2.73;;;2.43;;
13951;SDS011;39535;52.192;9.886;2023-08-06T02:50:44;2.60;;;2.40;;
13951;SDS011;39535;52.192;9.886;2023-08-06T02:53:10;2.57;;;2.37;;
13951;SDS011;39535;52.192;9.886;2023-08-06T02:55:37;3.00;;;2.80;;
13951;SDS011;39535;52.192;9.886;2023-08-06T02:58:03;2.90;;;2.70;;
13951;SDS011;39535;52.192;9.886;2023-08-06T03:00:30;3.60;;;3.20;;
13951;SDS011;39535;52.192;9.886;2023-08-06T03:02:58;3.60;;;3.30;;
13951;SDS011;39535;52.192;9.886;2023-08-06T03:05:24;3.10;;;2.90;;
13951;SDS011;39535;52.192;9.886;2023-08-06T03:07:51;3.67;;;3.47;;
13951;SDS011;39535;52.192;9.886;2023-08-06T03:10:17;4.00;;;3.70;;
13951;SDS011;39535;52.192;9.886;2023-08-06T03:12:45;4.60;;;4.10;;
13951;SDS011;39535;52.192;9.886;2023-08-06T03:15:11;5.00;;;3.63;;
13951;SDS011;39535;52.192;9.886;2023-08-06T03:17:38;3.47;;;3.17;;
13951;SDS011;39535;52.192;9.886;2023-08-06T03:20:07;3.83;;;3.43;;
13951;SDS011;39535;52.192;9.886;2023-08-06T03:22:33;7.13;;;4.50;;
13951;SDS011;39535;52.192;9.886;2023-08-06T03:25:00;3.37;;;3.03;;
13951;SDS011;39535;52.192;9.886;2023-08-06T03:27:26;4.13;;;3.83;;
13951;SDS011;39535;52.192;9.886;2023-08-06T03:29:53;5.40;;;3.67;;
13951;SDS011;39535;52.192;9.886;2023-08-06T03:32:19;4.57;;;4.17;;
13951;SDS011;39535;52.192;9.886;2023-08-06T03:34:46;4.40;;;4.07;;
13951;SDS011;39535;52.192;9.886;2023-08-06T03:37:14;3.80;;;3.50;;
13951;SDS011;39535;52.192;9.886;2023-08-06T03:39:40;4.47;;;3.80;;
13951;SDS011;39535;52.192;9.886;2023-08-06T03:42:07;4.33;;;3.50;;
13951;SDS011;39535;52.192;9.886;2023-08-06T03:44:33;4.50;;;4.20;;
13951;SDS011;39535;52.192;9.886;2023-08-06T03:46:59;4.30;;;3.90;;
13951;SDS011;39535;52.192;9.886;2023-08-06T03:49:26;4.07;;;3.43;;
13951;SDS011;39535;52.192;9.886;2023-08-06T03:51:52;4.40;;;3.47;;
13951;SDS011;39535;52.192;9.886;2023-08-06T03:54:20;3.63;;;3.33;;
13951;SDS011;39535;52.192;9.886;2023-08-06T03:56:47;3.73;;;3.43;;
13951;SDS011;39535;52.192;9.886;2023-08-06T03:59:13;5.73;;;3.20;;
13951;SDS011;39535;52.192;9.886;2023-08-06T04:01:39;3.43;;;3.13;;
13951;SDS011;39535;52.192;9.886;2023-08-06T04:04:06;3.00;;;2.80;;
13951;SDS011;39535;52.192;9.886;2023-08-06T04:06:32;3.33;;;2.73;;
13951;SDS011;39535;52.192;9.886;2023-08-06T04:08:59;2.87;;;2.57;;
13951;SDS011;39535;52.192;9.886;2023-08-06T04:11:27;3.53;;;3.23;;
13951;SDS011;39535;52.192;9.886;2023-08-06T04:13:53;2.73;;;2.53;;
13951;SDS011;39535;52.192;9.886;2023-08-06T04:16:20;2.77;;;2.57;;
13951;SDS011;39535;52.192;9.886;2023-08-06T04:18:47;3.10;;;2.80;;
13951;SDS011;39535;52.192;9.886;2023-08-06T04:21:14;3.27;;;2.50;;
13951;SDS011;39535;52.192;9.886;2023-08-06T04:23:40;3.63;;;2.40;;
13951;SDS011;39535;52.192;9.886;2023-08-06T04:26:07;4.23;;;2.93;;
13951;SDS011;39535;52.192;9.886;2023-08-06T04:28:34;2.83;;;2.63;;
13951;SDS011;39535;52.192;9.886;2023-08-06T04:31:01;4.40;;;2.63;;
13951;SDS011;39535;52.192;9.886;2023-08-06T04:33:27;3.50;;;2.60;;
13951;SDS011;39535;52.192;9.886;2023-08-06T04:35:54;2.70;;;2.50;;
13951;SDS011;39535;52.192;9.886;2023-08-06T04:38:22;2.83;;;2.57;;
13951;SDS011;39535;52.192;9.886;2023-08-06T04:40:49;2.73;;;2.53;;
13951;SDS011;39535;52.192;9.886;2023-08-06T04:43:16;2.87;;;2.67;;
13951;SDS011;39535;52.192;9.886;2023-08-06T04:45:46;3.30;;;3.00;;
13951;SDS011;39535;52.192;9.886;2023-08-06T04:48:13;2.60;;;2.43;;
13951;SDS011;39535;52.192;9.886;2023-08-06T04:50:42;3.03;;;2.77;;
13951;SDS011;39535;52.192;9.886;2023-08-06T04:53:09;3.60;;;2.60;;
13951;SDS011;39535;52.192;9.886;2023-08-06T04:55:36;4.53;;;2.80;;
13951;SDS011;39535;52.192;9.886;2023-08-06T04:58:02;2.93;;;2.63;;
13951;SDS011;39535;52.192;9.886;2023-08-06T05:00:29;2.93;;;2.73;;
13951;SDS011;39535;52.192;9.886;2023-08-06T05:02:57;3.70;;;3.37;;
13951;SDS011;39535;52.192;9.886;2023-08-06T05:05:25;3.53;;;3.23;;
13951;SDS011;39535;52.192;9.886;2023-08-06T05:07:53;4.07;;;3.77;;
13951;SDS011;39535;52.192;9.886;2023-08-06T05:10:21;3.30;;;2.90;;
13951;SDS011;39535;52.192;9.886;2023-08-06T05:12:50;3.53;;;3.30;;
13951;SDS011;39535;52.192;9.886;2023-08-06T05:15:17;3.20;;;3.00;;
13951;SDS011;39535;52.192;9.886;2023-08-06T05:17:44;4.33;;;3.83;;
13951;SDS011;39535;52.192;9.886;2023-08-06T05:20:12;3.80;;;3.50;;
13951;SDS011;39535;52.192;9.886;2023-08-06T05:22:38;4.00;;;3.67;;
13951;SDS011;39535;52.192;9.886;2023-08-06T05:25:05;3.00;;;2.80;;
13951;SDS011;39535;52.192;9.886;2023-08-06T05:27:32;3.60;;;3.30;;
13951;SDS011;39535;52.192;9.886;2023-08-06T05:29:58;3.13;;;2.83;;
13951;SDS011;39535;52.192;9.886;2023-08-06T05:32:25;3.43;;;3.13;;
13951;SDS011;39535;52.192;9.886;2023-08-06T05:34:51;2.87;;;2.67;;
13951;SDS011;39535;52.192;9.886;2023-08-06T05:37:19;4.17;;;3.20;;
13951;SDS011;39535;52.192;9.886;2023-08-06T05:39:46;4.47;;;3.30;;
13951;SDS011;39535;52.192;9.886;2023-08-06T05:42:12;4.13;;;3.73;;
13951;SDS011;39535;52.192;9.886;2023-08-06T05:44:39;4.00;;;3.70;;
13951;SDS011;39535;52.192;9.886;2023-08-06T05:47:05;3.20;;;3.00;;
13951;SDS011;39535;52.192;9.886;2023-08-06T05:49:32;3.70;;;3.40;;
13951;SDS011;39535;52.192;9.886;2023-08-06T05:51:58;3.77;;;3.47;;
13951;SDS011;39535;52.192;9.886;2023-08-06T05:54:26;4.07;;;3.67;;
13951;SDS011;39535;52.192;9.886;2023-08-06T05:56:52;3.17;;;2.97;;
13951;SDS011;39535;52.192;9.886;2023-08-06T05:59:19;3.30;;;3.10;;
13951;SDS011;39535;52.192;9.886;2023-08-06T06:01:45;2.70;;;2.50;;
13951;SDS011;39535;52.192;9.886;2023-08-06T06:04:12;3.10;;;2.90;;
13951;SDS011;39535;52.192;9.886;2023-08-06T06:06:38;3.63;;;2.80;;
13951;SDS011;39535;52.192;9.886;2023-08-06T06:09:06;3.00;;;2.80;;
13951;SDS011;39535;52.192;9.886;2023-08-06T06:11:34;2.70;;;2.50;;
13951;SDS011;39535;52.192;9.886;2023-08-06T06:14:01;3.03;;;2.73;;
13951;SDS011;39535;52.192;9.886;2023-08-06T06:16:27;2.73;;;2.53;;
13951;SDS011;39535;52.192;9.886;2023-08-06T06:18:54;2.70;;;2.50;;
13951;SDS011;39535;52.192;9.886;2023-08-06T06:21:22;2.17;;;1.97;;
13951;SDS011;39535;52.192;9.886;2023-08-06T06:23:48;1.80;;;1.70;;
13951;SDS011;39535;52.192;9.886;2023-08-06T06:26:16;1.80;;;1.70;;
13951;SDS011;39535;52.192;9.886;2023-08-06T06:28:44;2.87;;;1.70;;
13951;SDS011;39535;52.192;9.886;2023-08-06T06:31:10;1.93;;;1.80;;
13951;SDS011;39535;52.192;9.886;2023-08-06T06:33:37;1.90;;;1.80;;
13951;SDS011;39535;52.192;9.886;2023-08-06T06:36:03;1.70;;;1.60;;
13951;SDS011;39535;52.192;9.886;2023-08-06T06:38:32;1.80;;;1.70;;
13951;SDS011;39535;52.192;9.886;2023-08-06T06:40:59;2.97;;;1.73;;
13951;SDS011;39535;52.192;9.886;2023-08-06T06:43:25;7.37;;;6.00;;
13951;SDS011;39535;52.192;9.886;2023-08-06T06:45:53;5.90;;;5.30;;
13951;SDS011;39535;52.192;9.886;2023-08-06T06:48:22;2.47;;;2.33;;
13951;SDS011;39535;52.192;9.886;2023-08-06T06:50:49;1.80;;;1.70;;
13951;SDS011;39535;52.192;9.886;2023-08-06T06:53:15;2.63;;;2.43;;
13951;SDS011;39535;52.192;9.886;2023-08-06T06:55:42;2.57;;;2.37;;
13951;SDS011;39535;52.192;9.886;2023-08-06T06:58:08;2.30;;;2.20;;
13951;SDS011;39535;52.192;9.886;2023-08-06T07:00:35;3.13;;;2.83;;
13951;SDS011;39535;52.192;9.886;2023-08-06T07:03:03;3.33;;;2.93;;
13951;SDS011;39535;52.192;9.886;2023-08-06T07:05:30;3.13;;;2.83;;
13951;SDS011;39535;52.192;9.886;2023-08-06T07:07:57;4.17;;;2.80;;
13951;SDS011;39535;52.192;9.886;2023-08-06T07:10:23;2.27;;;2.17;;
13951;SDS011;39535;52.192;9.886;2023-08-06T07:12:52;3.30;;;2.20;;
13951;SDS011;39535;52.192;9.886;2023-08-06T07:15:19;3.63;;;2.47;;
13951;SDS011;39535;52.192;9.886;2023-08-06T07:17:46;3.47;;;2.73;;
13951;SDS011;39535;52.192;9.886;2023-08-06T07:20:14;2.70;;;2.50;;
13951;SDS011;39535;52.192;9.886;2023-08-06T07:22:40;2.90;;;2.70;;
13951;SDS011;39535;52.192;9.886;2023-08-06T07:25:15;2.33;;;2.03;;
13951;SDS011;39535;52.192;9.886;2023-08-06T07:27:42;2.40;;;1.90;;
13951;SDS011;39535;52.192;9.886;2023-08-06T07:30:09;2.20;;;2.07;;
13951;SDS011;39535;52.192;9.886;2023-08-06T07:32:38;2.47;;;2.27;;
13951;SDS011;39535;52.192;9.886;2023-08-06T07:35:05;4.73;;;2.70;;
13951;SDS011;39535;52.192;9.886;2023-08-06T07:37:34;2.30;;;2.00;;
13951;SDS011;39535;52.192;9.886;2023-08-06T07:40:01;2.00;;;1.90;;
13951;SDS011;39535;52.192;9.886;2023-08-06T07:42:27;2.67;;;2.50;;
13951;SDS011;39535;52.192;9.886;2023-08-06T07:44:54;2.13;;;2.03;;
13951;SDS011;39535;52.192;9.886;2023-08-06T07:47:21;2.20;;;2.10;;
13951;SDS011;39535;52.192;9.886;2023-08-06T07:49:48;2.60;;;2.50;;
13951;SDS011;39535;52.192;9.886;2023-08-06T07:52:15;2.90;;;2.70;;
13951;SDS011;39535;52.192;9.886;2023-08-06T07:54:43;2.40;;;2.20;;
13951;SDS011;39535;52.192;9.886;2023-08-06T07:57:09;3.33;;;2.80;;
13951;SDS011;39535;52.192;9.886;2023-08-06T07:59:36;2.43;;;2.23;;
13951;SDS011;39535;52.192;9.886;2023-08-06T08:02:02;2.73;;;2.53;;
13951;SDS011;39535;52.192;9.886;2023-08-06T08:04:30;6.63;;;2.40;;
13951;SDS011;39535;52.192;9.886;2023-08-06T08:06:57;4.73;;;2.30;;
13951;SDS011;39535;52.192;9.886;2023-08-06T08:09:23;5.50;;;2.73;;
13951;SDS011;39535;52.192;9.886;2023-08-06T08:11:51;2.70;;;2.47;;
13951;SDS011;39535;52.192;9.886;2023-08-06T08:14:17;2.80;;;2.37;;
13951;SDS011;39535;52.192;9.886;2023-08-06T08:16:44;2.67;;;2.30;;
13951;SDS011;39535;52.192;9.886;2023-08-06T08:19:11;2.50;;;2.30;;
13951;SDS011;39535;52.192;9.886;2023-08-06T08:21:37;2.40;;;2.20;;
13951;SDS011;39535;52.192;9.886;2023-08-06T08:24:04;2.60;;;2.40;;
13951;SDS011;39535;52.192;9.886;2023-08-06T08:26:31;2.37;;;2.27;;
13951;SDS011;39535;52.192;9.886;2023-08-06T08:28:58;2.40;;;2.20;;
13951;SDS011;39535;52.192;9.886;2023-08-06T08:31:25;2.50;;;2.40;;
13951;SDS011;39535;52.192;9.886;2023-08-06T08:33:51;2.07;;;1.87;;
13951;SDS011;39535;52.192;9.886;2023-08-06T08:36:18;2.20;;;2.10;;
13951;SDS011;39535;52.192;9.886;2023-08-06T08:38:45;2.37;;;2.17;;
13951;SDS011;39535;52.192;9.886;2023-08-06T08:41:11;2.07;;;1.97;;
13951;SDS011;39535;52.192;9.886;2023-08-06T08:43:38;2.10;;;2.00;;
13951;SDS011;39535;52.192;9.886;2023-08-06T08:46:08;2.83;;;2.73;;
13951;SDS011;39535;52.192;9.886;2023-08-06T08:48:35;2.57;;;2.43;;
13951;SDS011;39535;52.192;9.886;2023-08-06T08:51:02;2.50;;;2.30;;
13951;SDS011;39535;52.192;9.886;2023-08-06T08:53:30;2.70;;;2.50;;
13951;SDS011;39535;52.192;9.886;2023-08-06T08:55:57;2.40;;;2.30;;
13951;SDS011;39535;52.192;9.886;2023-08-06T08:58:24;2.90;;;2.70;;
13951;SDS011;39535;52.192;9.886;2023-08-06T09:00:51;2.30;;;2.17;;
13951;SDS011;39535;52.192;9.886;2023-08-06T09:03:20;3.07;;;2.80;;
13951;SDS011;39535;52.192;9.886;2023-08-06T09:05:48;2.30;;;2.10;;
13951;SDS011;39535;52.192;9.886;2023-08-06T09:08:18;2.30;;;2.20;;
13951;SDS011;39535;52.192;9.886;2023-08-06T09:10:50;2.40;;;2.30;;
13951;SDS011;39535;52.192;9.886;2023-08-06T09:13:18;2.60;;;2.40;;
13951;SDS011;39535;52.192;9.886;2023-08-06T09:15:45;2.53;;;2.33;;
13951;SDS011;39535;52.192;9.886;2023-08-06T09:18:11;2.80;;;2.60;;
13951;SDS011;39535;52.192;9.886;2023-08-06T09:20:39;1.83;;;1.73;;
13951;SDS011;39535;52.192;9.886;2023-08-06T09:23:06;2.17;;;2.07;;
13951;SDS011;39535;52.192;9.886;2023-08-06T09:25:33;2.07;;;1.93;;
13951;SDS011;39535;52.192;9.886;2023-08-06T09:28:04;2.03;;;1.93;;
13951;SDS011;39535;52.192;9.886;2023-08-06T09:30:31;3.40;;;2.00;;
13951;SDS011;39535;52.192;9.886;2023-08-06T09:32:59;2.37;;;2.10;;
13951;SDS011;39535;52.192;9.886;2023-08-06T09:35:29;1.90;;;1.80;;
13951;SDS011;39535;52.192;9.886;2023-08-06T09:37:58;1.83;;;1.70;;
13951;SDS011;39535;52.192;9.886;2023-08-06T09:40:33;1.90;;;1.80;;
13951;SDS011;39535;52.192;9.886;2023-08-06T09:42:59;2.00;;;1.90;;
13951;SDS011;39535;52.192;9.886;2023-08-06T09:45:28;2.13;;;2.03;;
13951;SDS011;39535;52.192;9.886;2023-08-06T09:47:57;1.70;;;1.60;;
13951;SDS011;39535;52.192;9.886;2023-08-06T09:50:25;1.90;;;1.80;;
13951;SDS011;39535;52.192;9.886;2023-08-06T09:52:55;2.00;;;1.90;;
13951;SDS011;39535;52.192;9.886;2023-08-06T09:55:23;1.97;;;1.87;;
13951;SDS011;39535;52.192;9.886;2023-08-06T09:57:51;2.40;;;2.00;;
13951;SDS011;39535;52.192;9.886;2023-08-06T10:00:18;2.60;;;2.40;;
13951;SDS011;39535;52.192;9.886;2023-08-06T10:02:45;2.30;;;2.00;;
13951;SDS011;39535;52.192;9.886;2023-08-06T10:05:13;2.20;;;2.00;;
13951;SDS011;39535;52.192;9.886;2023-08-06T10:07:41;2.93;;;2.50;;
13951;SDS011;39535;52.192;9.886;2023-08-06T10:10:10;2.07;;;1.93;;
13951;SDS011;39535;52.192;9.886;2023-08-06T10:12:39;2.13;;;1.70;;
13951;SDS011;39535;52.192;9.886;2023-08-06T10:15:10;1.90;;;1.80;;
13951;SDS011;39535;52.192;9.886;2023-08-06T10:17:38;1.80;;;1.70;;
13951;SDS011;39535;52.192;9.886;2023-08-06T10:20:07;1.80;;;1.70;;
13951;SDS011;39535;52.192;9.886;2023-08-06T10:22:34;1.53;;;1.43;;
13951;SDS011;39535;52.192;9.886;2023-08-06T10:25:02;1.40;;;1.40;;
13951;SDS011;39535;52.192;9.886;2023-08-06T10:27:32;1.80;;;1.70;;
13951;SDS011;39535;52.192;9.886;2023-08-06T10:32:50;1.90;;;1.80;;
13951;SDS011;39535;52.192;9.886;2023-08-06T10:35:30;2.10;;;1.90;;
13951;SDS011;39535;52.192;9.886;2023-08-06T10:37:58;2.87;;;1.53;;
13951;SDS011;39535;52.192;9.886;2023-08-06T10:40:28;1.50;;;1.40;;
13951;SDS011;39535;52.192;9.886;2023-08-06T10:42:58;2.90;;;1.53;;
13951;SDS011;39535;52.192;9.886;2023-08-06T10:45:26;1.67;;;1.40;;
13951;SDS011;39535;52.192;9.886;2023-08-06T10:47:54;1.20;;;1.13;;
13951;SDS011;39535;52.192;9.886;2023-08-06T10:50:21;1.73;;;1.60;;
13951;SDS011;39535;52.192;9.886;2023-08-06T10:52:48;1.70;;;1.53;;
13951;SDS011;39535;52.192;9.886;2023-08-06T10:55:14;1.53;;;1.37;;
13951;SDS011;39535;52.192;9.886;2023-08-06T10:57:49;2.00;;;1.60;;
13951;SDS011;39535;52.192;9.886;2023-08-06T11:00:15;1.67;;;1.50;;
13951;SDS011;39535;52.192;9.886;2023-08-06T11:02:43;1.93;;;1.83;;
13951;SDS011;39535;52.192;9.886;2023-08-06T11:05:10;1.93;;;1.50;;
13951;SDS011;39535;52.192;9.886;2023-08-06T11:07:37;1.80;;;1.67;;
13951;SDS011;39535;52.192;9.886;2023-08-06T11:10:04;1.63;;;1.53;;
13951;SDS011;39535;52.192;9.886;2023-08-06T11:12:33;1.60;;;1.50;;
13951;SDS011;39535;52.192;9.886;2023-08-06T11:14:59;1.77;;;1.67;;
13951;SDS011;39535;52.192;9.886;2023-08-06T11:17:27;1.70;;;1.30;;
13951;SDS011;39535;52.192;9.886;2023-08-06T11:19:56;1.60;;;1.50;;
13951;SDS011;39535;52.192;9.886;2023-08-06T11:22:24;1.80;;;1.13;;
13951;SDS011;39535;52.192;9.886;2023-08-06T11:24:51;1.87;;;1.20;;
13951;SDS011;39535;52.192;9.886;2023-08-06T11:27:19;1.80;;;1.20;;
13951;SDS011;39535;52.192;9.886;2023-08-06T11:29:45;1.10;;;1.10;;
13951;SDS011;39535;52.192;9.886;2023-08-06T11:32:12;1.30;;;1.27;;
13951;SDS011;39535;52.192;9.886;2023-08-06T11:34:39;1.53;;;1.37;;
13951;SDS011;39535;52.192;9.886;2023-08-06T11:37:07;1.40;;;1.30;;
13951;SDS011;39535;52.192;9.886;2023-08-06T11:39:36;1.33;;;1.30;;
13951;SDS011;39535;52.192;9.886;2023-08-06T11:42:03;1.43;;;1.33;;
13951;SDS011;39535;52.192;9.886;2023-08-06T11:44:31;1.20;;;1.20;;
13951;SDS011;39535;52.192;9.886;2023-08-06T11:46:59;1.47;;;1.37;;
13951;SDS011;39535;52.192;9.886;2023-08-06T11:49:37;1.13;;;1.13;;
13951;SDS011;39535;52.192;9.886;2023-08-06T11:52:09;2.00;;;1.10;;
13951;SDS011;39535;52.192;9.886;2023-08-06T11:54:36;1.80;;;1.50;;
13951;SDS011;39535;52.192;9.886;2023-08-06T11:57:03;3.07;;;1.57;;
13951;SDS011;39535;52.192;9.886;2023-08-06T11:59:34;1.40;;;1.30;;
13951;SDS011;39535;52.192;9.886;2023-08-06T12:02:01;1.67;;;1.10;;
13951;SDS011;39535;52.192;9.886;2023-08-06T12:04:30;1.20;;;1.10;;
13951;SDS011;39535;52.192;9.886;2023-08-06T12:07:04;3.13;;;1.60;;
13951;SDS011;39535;52.192;9.886;2023-08-06T12:09:32;1.20;;;1.20;;
13951;SDS011;39535;52.192;9.886;2023-08-06T12:11:58;1.30;;;1.30;;
13951;SDS011;39535;52.192;9.886;2023-08-06T12:14:25;1.53;;;1.43;;
13951;SDS011;39535;52.192;9.886;2023-08-06T12:16:51;1.50;;;1.40;;
13951;SDS011;39535;52.192;9.886;2023-08-06T12:19:18;1.53;;;1.23;;
13951;SDS011;39535;52.192;9.886;2023-08-06T12:21:44;5.50;;;1.80;;
13951;SDS011;39535;52.192;9.886;2023-08-06T12:24:11;1.80;;;1.70;;
13951;SDS011;39535;52.192;9.886;2023-08-06T12:26:38;1.30;;;1.20;;
13951;SDS011;39535;52.192;9.886;2023-08-06T12:29:05;1.33;;;1.33;;
13951;SDS011;39535;52.192;9.886;2023-08-06T12:31:31;1.47;;;1.40;;
13951;SDS011;39535;52.192;9.886;2023-08-06T12:33:58;1.60;;;1.50;;
13951;SDS011;39535;52.192;9.886;2023-08-06T12:36:24;1.40;;;1.30;;
13951;SDS011;39535;52.192;9.886;2023-08-06T12:38:51;1.50;;;1.30;;
13951;SDS011;39535;52.192;9.886;2023-08-06T12:41:17;2.20;;;1.20;;
13951;SDS011;39535;52.192;9.886;2023-08-06T12:43:45;1.20;;;1.10;;
13951;SDS011;39535;52.192;9.886;2023-08-06T12:46:11;2.20;;;1.17;;
13951;SDS011;39535;52.192;9.886;2023-08-06T12:48:38;1.17;;;1.03;;
13951;SDS011;39535;52.192;9.886;2023-08-06T12:51:04;1.37;;;1.30;;
13951;SDS011;39535;52.192;9.886;2023-08-06T12:53:31;1.50;;;1.40;;
13951;SDS011;39535;52.192;9.886;2023-08-06T12:55:57;2.07;;;1.20;;
13951;SDS011;39535;52.192;9.886;2023-08-06T12:58:24;1.33;;;1.33;;
13951;SDS011;39535;52.192;9.886;2023-08-06T13:00:52;1.13;;;1.03;;
13951;SDS011;39535;52.192;9.886;2023-08-06T13:03:20;1.50;;;1.40;;
13951;SDS011;39535;52.192;9.886;2023-08-06T13:05:46;1.43;;;1.33;;
13951;SDS011;39535;52.192;9.886;2023-08-06T13:08:12;1.37;;;1.27;;
13951;SDS011;39535;52.192;9.886;2023-08-06T13:10:39;1.87;;;1.70;;
13951;SDS011;39535;52.192;9.886;2023-08-06T13:13:05;2.07;;;1.87;;
13951;SDS011;39535;52.192;9.886;2023-08-06T13:15:32;1.60;;;1.50;;
13951;SDS011;39535;52.192;9.886;2023-08-06T13:18:00;1.80;;;1.70;;
13951;SDS011;39535;52.192;9.886;2023-08-06T13:20:26;1.67;;;1.57;;
13951;SDS011;39535;52.192;9.886;2023-08-06T13:22:53;1.60;;;1.50;;
13951;SDS011;39535;52.192;9.886;2023-08-06T13:25:20;1.70;;;1.60;;
13951;SDS011;39535;52.192;9.886;2023-08-06T13:27:47;1.90;;;1.77;;
13951;SDS011;39535;52.192;9.886;2023-08-06T13:30:14;1.70;;;1.50;;
13951;SDS011;39535;52.192;9.886;2023-08-06T13:32:41;1.60;;;1.50;;
13951;SDS011;39535;52.192;9.886;2023-08-06T13:35:09;2.00;;;1.80;;
13951;SDS011;39535;52.192;9.886;2023-08-06T13:37:36;1.87;;;1.77;;
13951;SDS011;39535;52.192;9.886;2023-08-06T13:40:05;1.37;;;1.33;;
13951;SDS011;39535;52.192;9.886;2023-08-06T13:42:33;1.70;;;1.60;;
13951;SDS011;39535;52.192;9.886;2023-08-06T13:45:00;1.60;;;1.50;;
13951;SDS011;39535;52.192;9.886;2023-08-06T13:47:28;1.73;;;1.63;;
13951;SDS011;39535;52.192;9.886;2023-08-06T13:49:55;1.60;;;1.50;;
13951;SDS011;39535;52.192;9.886;2023-08-06T13:52:23;1.83;;;1.73;;
13951;SDS011;39535;52.192;9.886;2023-08-06T13:54:51;2.10;;;1.80;;
13951;SDS011;39535;52.192;9.886;2023-08-06T13:57:17;2.70;;;1.97;;
13951;SDS011;39535;52.192;9.886;2023-08-06T13:59:44;1.80;;;1.70;;
13951;SDS011;39535;52.192;9.886;2023-08-06T14:02:10;2.37;;;1.70;;
13951;SDS011;39535;52.192;9.886;2023-08-06T14:04:37;1.60;;;1.50;;
13951;SDS011;39535;52.192;9.886;2023-08-06T14:07:05;1.80;;;1.70;;
13951;SDS011;39535;52.192;9.886;2023-08-06T14:09:32;2.03;;;1.87;;
13951;SDS011;39535;52.192;9.886;2023-08-06T14:12:00;1.53;;;1.50;;
13951;SDS011;39535;52.192;9.886;2023-08-06T14:14:26;2.10;;;1.90;;
13951;SDS011;39535;52.192;9.886;2023-08-06T14:16:53;1.60;;;1.50;;
13951;SDS011;39535;52.192;9.886;2023-08-06T14:19:20;1.57;;;1.47;;
13951;SDS011;39535;52.192;9.886;2023-08-06T14:21:49;1.60;;;1.50;;
13951;SDS011;39535;52.192;9.886;2023-08-06T14:24:16;1.60;;;1.50;;
13951;SDS011;39535;52.192;9.886;2023-08-06T14:26:44;4.43;;;1.40;;
13951;SDS011;39535;52.192;9.886;2023-08-06T14:29:10;1.90;;;1.70;;
13951;SDS011;39535;52.192;9.886;2023-08-06T14:31:38;1.93;;;1.80;;
13951;SDS011;39535;52.192;9.886;2023-08-06T14:34:05;1.87;;;1.73;;
13951;SDS011;39535;52.192;9.886;2023-08-06T14:36:31;1.83;;;1.73;;
13951;SDS011;39535;52.192;9.886;2023-08-06T14:38:58;1.67;;;1.40;;
13951;SDS011;39535;52.192;9.886;2023-08-06T14:41:24;1.70;;;1.60;;
13951;SDS011;39535;52.192;9.886;2023-08-06T14:43:52;2.00;;;1.80;;
13951;SDS011;39535;52.192;9.886;2023-08-06T14:46:19;1.80;;;1.70;;
13951;SDS011;39535;52.192;9.886;2023-08-06T14:48:46;1.70;;;1.60;;
13951;SDS011;39535;52.192;9.886;2023-08-06T14:51:12;1.70;;;1.60;;